Estación municipal de Cercs - St.Jordi (Berguedà, )

Consulta los datos en tiempo real de la estación municipal de Cercs - St.Jordi





Hora UTC 17:45
Temperatura 25.2 ºC
Humedad 69.4 %
Presión 1020.0 hPa
Pluja 0.0 mm
Velocidad viento 8.4 km/h
Dirección viento SE
Radiación solar 22.5 W/m²

Datos diarios 2026-08-31



Hora UTC (invierno +1h; verano +2h)
Temperatura (ºC) Humedad (%) Presión (hPa) Velocidad viento (km/h) Precipitación (mm) Radiación solar (W/m²)
Hora UTC Aire Humedad Presión Vel. Dir. Vel. Max Dir. Intent. máx 5 min. Rad. Sol.
00:05 19.2 61.3 1019.5 3.5 W 3.5 W 0.0 0.1
00:10 19.0 61.9 1019.5 4.5 NW 14.2 NW 0.0 0.2
00:15 19.3 60.6 1019.5 4.4 NW 11.5 W 0.0 0.2
00:20 19.3 60.6 1019.6 4.4 NW 11.5 WNW 0.0 0.2
00:25 19.2 61.3 1019.5 3.0 NNW 11.5 NNW 0.0 0.1
00:30 19.0 61.6 1019.5 4.4 NNE 11.5 NE 0.0 0.2
00:35 19.2 61.2 1019.4 3.0 NNW 8.8 NNE 0.0 0.1
00:40 18.8 62.8 1019.4 3.1 NW 6.1 NW 0.0 0.2
00:45 18.8 62.7 1019.4 1.7 N 6.1 NNW 0.0 0.2
00:50 18.8 62.4 1019.5 4.6 NNW 14.2 NW 0.0 0.2
00:55 18.9 62.0 1019.5 6.2 NW 14.2 N 0.0 0.2
01:00 18.9 62.1 1019.5 5.6 NNW 14.2 NW 0.0 0.2
01:05 18.9 62.1 1019.5 4.0 NNW 11.5 NE 0.0 0.1
01:10 18.8 62.3 1019.5 2.3 NW 6.1 WNW 0.0 0.1
01:15 18.7 62.4 1019.6 5.2 NNW 16.9 NNW 0.0 0.2
01:20 18.9 61.9 1019.6 4.7 NW 14.2 NW 0.0 0.2
01:25 18.9 61.9 1019.6 5.4 NW 11.5 NNE 0.0 0.2
01:30 18.7 62.7 1019.6 1.0 S 6.1 S 0.0 0.2
01:35 18.4 63.6 1019.6 1.4 NNE 6.1 NW 0.0 0.2
01:40 18.4 63.8 1019.6 0.7 NE 6.1 N 0.0 0.1
01:45 18.3 64.4 1019.6 2.0 NNW 11.5 WNW 0.0 0.2
01:50 18.1 65.1 1019.6 1.5 WNW 6.1 WNW 0.0 0.2
01:55 17.7 66.7 1019.6 1.1 W 6.1 W 0.0 0.1
02:00 17.6 66.6 1019.5 0.3 NNE 6.1 NNE 0.0 0.2
02:05 17.7 66.7 1019.5 0.8 NNE 6.1 NNE 0.0 0.1
02:10 17.9 65.9 1019.5 2.0 NNW 8.8 NW 0.0 0.2
02:15 17.8 66.0 1019.5 4.8 NW 14.2 N 0.0 0.3
02:20 18.0 65.4 1019.5 8.9 NW 16.9 NNW 0.0 0.2
02:25 18.1 64.9 1019.6 7.0 NW 14.2 WNW 0.0 0.2
02:30 18.0 65.1 1019.6 6.6 NW 11.5 WNW 0.0 0.1
02:35 18.1 64.6 1019.6 4.6 NW 14.2 NW 0.0 0.2
02:40 18.2 64.1 1019.6 4.6 N 8.8 NNW 0.0 0.2
02:45 18.3 63.7 1019.7 3.6 NNW 11.5 WNW 0.0 0.2
02:50 18.4 63.3 1019.6 4.5 NW 11.5 WNW 0.0 0.1
02:55 18.4 63.5 1019.6 2.1 WNW 8.8 NW 0.0 0.2
03:00 18.2 64.7 1019.6 0.4 W 6.1 W 0.0 0.2
03:05 18.0 65.5 1019.6 0.0 NNE 0.0 SE 0.0 0.2
03:10 17.9 65.7 1019.6 0.0 NNE 0.0 SSW 0.0 0.1
03:15 17.7 66.7 1019.6 0.5 ENE 8.8 ENE 0.0 0.2
03:20 17.6 66.7 1019.6 1.2 NE 6.1 NE 0.0 0.1
03:25 17.6 66.5 1019.6 2.7 NNE 8.8 NNE 0.0 0.1
03:30 17.8 65.4 1019.6 2.6 NNE 8.8 NNE 0.0 0.2
03:35 17.8 65.6 1019.6 0.7 NNE 8.8 NNE 0.0 0.2
03:40 17.6 66.5 1019.6 3.6 WNW 8.8 NW 0.0 0.2
03:45 17.6 66.2 1019.6 5.2 NNW 8.8 NNW 0.0 0.2
03:50 17.9 64.5 1019.6 4.9 NNE 14.2 NW 0.0 0.2
03:55 17.9 65.1 1019.6 5.1 NNW 11.5 NW 0.0 0.1
04:00 17.9 65.2 1019.6 3.2 NNW 11.5 WNW 0.0 0.2
04:05 17.9 65.3 1019.6 1.6 NNE 8.8 NW 0.0 0.2
04:10 17.7 66.6 1019.6 1.7 NNW 8.8 NNW 0.0 0.2
04:15 17.5 67.5 1019.6 0.1 N 3.4 NE 0.0 0.2
04:20 17.5 66.7 1019.6 3.8 NNW 11.5 WNW 0.0 0.1
04:25 17.6 66.5 1019.6 6.9 NNW 16.9 WNW 0.0 0.1
04:30 17.7 65.2 1019.6 3.8 NNW 11.5 NW 0.0 0.2
04:35 17.8 64.6 1019.6 5.0 NW 14.2 W 0.0 0.1
04:40 17.7 66.4 1019.6 2.8 NW 14.2 NNW 0.0 0.2
04:45 17.8 65.2 1019.6 4.1 N 11.5 N 0.0 0.1
04:50 17.8 65.1 1019.7 3.1 NNW 11.5 NW 0.0 0.3
04:55 17.7 66.1 1019.7 3.5 NNW 14.2 NW 0.0 0.4
05:00 17.6 66.2 1019.7 0.3 NNE 3.4 N 0.0 0.8
05:05 17.4 67.4 1019.7 2.1 N 8.8 ENE 0.0 1.5
05:10 17.4 68.0 1019.7 1.4 NNW 8.8 NNW 0.0 2.6
05:15 17.3 67.5 1019.8 4.3 NNW 11.5 NW 0.0 3.9
05:20 17.4 66.7 1019.8 4.0 NNW 14.2 NW 0.0 5.5
05:25 17.4 67.2 1019.9 2.5 NNW 8.8 NNE 0.0 7.1
05:30 17.2 69.9 1019.9 1.2 NNW 6.1 NNW 0.0 8.6
05:35 17.2 70.2 1019.9 0.2 NNE 3.4 NNE 0.0 10.1
05:40 17.0 70.5 1019.9 0.6 NNW 6.1 NNE 0.0 11.5
05:45 17.2 69.8 1019.9 0.4 NE 6.1 NNE 0.0 13.0
05:50 17.1 71.1 1020.0 0.4 NNW 3.4 NW 0.0 14.7
05:55 17.0 70.8 1020.0 0.6 NW 6.1 N 0.0 17.9
06:00 17.2 69.7 1020.1 0.4 NNW 6.1 NNW 0.0 19.4
06:05 17.2 70.6 1020.1 0.1 NE 3.4 NE 0.0 20.4
06:10 17.3 70.2 1020.2 0.9 SSW 6.1 S 0.0 21.3
06:15 17.4 69.4 1020.2 0.1 SE 3.4 SE 0.0 22.1
06:20 17.5 68.1 1020.2 1.6 ENE 6.1 ENE 0.0 23.4
06:25 17.6 67.7 1020.2 3.4 NE 6.1 ENE 0.0 23.9
06:30 18.0 66.2 1020.2 0.3 NE 6.1 NE 0.0 24.2
06:35 18.3 67.5 1020.2 0.0 NNE 0.0 SSW 0.0 24.8
06:40 18.1 69.0 1020.3 0.0 NNE 0.0 S 0.0 25.9
06:45 18.1 68.6 1020.3 0.0 NNE 0.0 SSE 0.0 26.2
06:50 18.3 68.6 1020.3 0.0 NNE 0.0 S 0.0 26.7
06:55 18.5 69.4 1020.4 0.0 NNE 0.0 SSW 0.0 28.2
07:00 18.6 67.9 1020.4 0.0 NNE 0.0 NW 0.0 28.8
07:05 18.8 68.2 1020.4 0.0 NNE 0.0 SSW 0.0 29.3
07:10 18.8 68.4 1020.5 0.0 NNE 0.0 SSW 0.0 29.9
07:15 19.1 67.3 1020.5 0.0 NNE 0.0 S 0.0 30.9
07:20 19.3 65.9 1020.5 0.0 NNE 0.0 ESE 0.0 33.0
07:25 19.4 65.8 1020.5 0.0 NNE 0.0 E 0.0 35.6
07:30 19.4 65.5 1020.5 0.0 NNE 0.0 ENE 0.0 33.2
07:35 19.7 65.1 1020.5 0.0 NNE 0.0 NE 0.0 34.2
07:40 19.9 64.8 1020.5 0.0 NNE 0.0 ENE 0.0 34.8
07:45 20.2 64.0 1020.6 0.0 NNE 0.0 NE 0.0 35.0
07:50 20.5 63.9 1020.6 0.0 NNE 0.0 E 0.0 35.5
07:55 20.6 63.7 1020.6 0.0 NNE 0.0 E 0.0 36.1
08:00 20.8 63.1 1020.7 0.0 NNE 0.0 ESE 0.0 37.0
08:05 21.0 63.1 1020.7 0.0 NNE 0.0 ESE 0.0 37.6
08:10 21.4 62.1 1020.8 0.0 NNE 0.0 ENE 0.0 39.5
08:15 21.7 61.3 1020.9 0.0 NNE 0.0 ENE 0.0 47.5
08:20 21.9 59.1 1020.9 0.0 NNE 0.0 E 0.0 80.6
08:25 22.1 55.6 1020.9 0.0 NNE 0.0 ENE 0.0 163.9
08:30 22.5 54.4 1021.0 0.5 NE 3.4 NE 0.0 214.7
08:35 22.6 55.0 1021.0 1.8 ENE 8.8 ENE 0.0 483.9
08:40 22.9 54.6 1021.0 1.1 ENE 6.1 ENE 0.0 497.6
08:45 23.5 53.7 1021.1 2.0 E 8.8 E 0.0 509.8
08:50 24.1 52.3 1021.1 1.6 SSE 8.8 SSE 0.0 521.8
08:55 24.8 49.6 1021.1 2.1 ESE 8.8 SSE 0.0 533.4
09:00 25.2 49.4 1021.2 5.9 SE 11.5 SE 0.0 544.5
09:05 25.7 47.7 1021.2 3.4 SE 8.8 ESE 0.0 555.2
09:10 26.1 46.2 1021.2 6.9 SE 11.5 SSE 0.0 566.0
09:15 26.4 45.2 1021.2 4.2 SE 11.5 ESE 0.0 576.8
09:20 26.7 43.1 1021.2 5.6 SE 14.2 SSE 0.0 586.8
09:25 27.2 40.9 1021.2 4.9 SE 11.5 ESE 0.0 596.5
09:30 27.2 40.1 1021.2 3.3 SE 11.5 ESE 0.0 605.7
09:35 27.5 40.0 1021.2 3.8 SE 14.2 SSE 0.0 615.0
09:40 27.5 39.7 1021.2 4.5 SSE 11.5 SE 0.0 623.7
09:45 27.6 38.7 1021.2 6.5 SSE 14.2 SSE 0.0 632.9
09:50 27.6 39.2 1021.2 6.7 SSE 14.2 SE 0.0 640.9
09:55 27.3 38.2 1021.2 7.3 S 14.2 ESE 0.0 648.2
10:00 27.8 37.4 1021.2 6.0 SE 14.2 SE 0.0 656.3
10:05 28.1 36.4 1021.2 5.3 S 14.2 SSW 0.0 664.9
10:10 27.7 36.1 1021.2 7.0 SE 14.2 SSE 0.0 672.2
10:15 27.9 35.4 1021.2 5.9 SSE 14.2 SE 0.0 678.5
10:20 28.1 35.4 1021.2 7.8 SE 16.9 SE 0.0 684.7
10:25 28.3 34.5 1021.2 4.3 SE 11.5 SE 0.0 689.6
10:30 28.6 34.0 1021.2 8.2 SSE 16.9 ESE 0.0 696.8
10:35 28.6 33.7 1021.2 5.8 SE 11.5 SSE 0.0 702.9
10:40 28.7 34.5 1021.2 7.1 SSE 14.2 SSE 0.0 707.4
10:45 28.6 33.4 1021.2 6.0 SE 14.2 SSW 0.0 713.2
10:50 28.8 33.3 1021.2 6.1 SSE 14.2 ESE 0.0 717.9
10:55 28.6 34.4 1021.2 6.4 SSE 16.9 SSE 0.0 722.0
11:00 29.2 33.7 1021.1 4.2 SE 11.5 SE 0.0 726.2
11:05 29.5 32.1 1021.0 4.5 SE 11.5 ESE 0.0 730.0
11:10 29.5 32.4 1021.0 4.4 SE 14.2 SSE 0.0 732.2
11:15 29.6 32.4 1021.0 5.2 SE 11.5 SE 0.0 734.7
11:20 29.5 32.0 1020.9 5.4 SE 14.2 SSW 0.0 736.6
11:25 29.3 32.2 1020.9 7.6 SE 16.9 SE 0.0 739.3
11:30 29.3 32.6 1020.9 7.0 SE 14.2 S 0.0 741.4
11:35 29.6 32.5 1020.9 6.6 SE 16.9 SE 0.0 743.3
11:40 29.7 32.9 1020.8 5.3 SE 16.9 SSE 0.0 743.5
11:45 29.6 33.4 1020.9 6.9 SE 16.9 S 0.0 744.1
11:50 30.0 32.3 1020.8 6.5 SE 14.2 ESE 0.0 744.5
11:55 29.8 32.4 1020.8 7.5 SE 16.9 ESE 0.0 744.5
12:00 29.9 32.9 1020.7 7.6 SSE 19.6 ESE 0.0 744.7
12:05 29.9 32.9 1020.7 7.3 SSE 14.2 ESE 0.0 744.3
12:10 29.8 33.0 1020.6 8.4 SSE 16.9 SE 0.0 743.7
12:15 29.8 33.1 1020.6 6.1 SSE 14.2 SSE 0.0 743.0
12:20 30.1 33.5 1020.6 5.6 SE 11.5 ESE 0.0 740.8
12:25 30.1 33.7 1020.6 5.0 SSE 14.2 SSE 0.0 737.9
12:30 30.2 32.0 1020.5 6.8 ESE 16.9 SE 0.0 735.1
12:35 30.3 32.5 1020.5 4.9 ESE 14.2 SSE 0.0 732.9
12:40 30.2 33.8 1020.4 5.6 SSE 14.2 SSE 0.0 730.2
12:45 30.5 33.9 1020.4 8.6 ESE 22.3 ESE 0.0 725.5
12:50 30.4 34.6 1020.3 7.1 ESE 16.9 SE 0.0 720.7
12:55 30.5 34.1 1020.3 5.8 ESE 14.2 E 0.0 717.3
13:00 30.5 34.3 1020.2 5.0 ESE 14.2 ESE 0.0 714.8
13:05 30.9 33.8 1020.2 5.5 ESE 16.9 SSE 0.0 708.8
13:10 30.6 32.9 1020.2 5.7 ESE 11.5 ESE 0.0 704.1
13:15 30.5 33.5 1020.1 5.8 ESE 16.9 SSE 0.0 699.1
13:20 30.9 33.2 1020.2 6.1 ESE 19.6 ESE 0.0 698.6
13:25 30.7 34.0 1020.1 5.2 ESE 14.2 SSE 0.0 690.8
13:30 31.1 34.1 1020.1 5.4 SE 16.9 ESE 0.0 687.9
13:35 30.8 35.0 1020.1 7.4 SSE 14.2 SSE 0.0 684.2
13:40 30.9 34.3 1020.0 7.0 ESE 19.6 E 0.0 646.5
13:45 30.7 34.3 1020.0 5.3 ESE 14.2 SSE 0.0 668.8
13:50 30.5 34.8 1020.0 5.0 SE 14.2 SE 0.0 679.4
13:55 30.7 34.9 1020.0 4.9 SE 11.5 SSW 0.0 665.0
14:00 30.6 33.9 1019.9 4.5 E 14.2 ENE 0.0 649.4
14:05 31.0 33.5 1019.8 4.2 ESE 11.5 ESE 0.0 648.7
14:10 31.2 32.8 1019.8 5.2 ESE 14.2 ESE 0.0 633.0
14:15 31.2 32.7 1019.8 4.8 ESE 14.2 ENE 0.0 628.2
14:20 31.5 33.3 1019.7 5.7 SE 14.2 ESE 0.0 622.3
14:25 31.6 32.5 1019.6 3.5 ESE 11.5 SSE 0.0 605.9
14:30 31.6 33.5 1019.6 7.7 SSE 14.2 SSE 0.0 598.7
14:35 31.5 33.3 1019.6 3.4 SE 11.5 SE 0.0 588.0
14:40 31.8 32.6 1019.5 4.9 ESE 14.2 ESE 0.0 585.3
14:45 31.7 32.9 1019.4 3.7 ESE 8.8 NE 0.0 567.5
14:50 31.8 32.5 1019.4 1.9 SE 11.5 ESE 0.0 554.4
14:55 32.0 32.6 1019.4 3.2 ESE 11.5 ENE 0.0 545.8
15:00 31.6 33.5 1019.3 5.9 ESE 14.2 E 0.0 530.1
15:05 31.6 33.6 1019.3 7.5 ESE 14.2 SSE 0.0 510.4
15:10 31.6 33.5 1019.3 6.5 ESE 16.9 SE 0.0 495.3
15:15 31.5 34.0 1019.3 5.0 SE 16.9 SSE 0.0 487.4
15:20 31.5 34.5 1019.3 6.4 SE 22.3 ENE 0.0 474.6
15:25 31.5 34.0 1019.2 6.3 SSE 19.6 SSE 0.0 428.3
15:30 31.5 31.8 1019.2 4.8 SSE 19.6 ESE 0.0 463.2
15:35 31.7 32.8 1019.3 8.5 SE 19.6 S 0.0 448.1
15:40 31.4 35.4 1019.3 7.9 SE 22.3 ENE 0.0 447.6
15:45 31.1 37.4 1019.3 6.9 SSE 19.6 SE 0.0 431.9
15:50 31.0 39.9 1019.4 10.4 SE 25.0 SE 0.0 419.8
15:55 30.5 43.2 1019.4 8.4 S 19.6 S 0.0 401.3
16:00 30.6 44.6 1019.4 6.7 SSE 16.9 S 0.0 390.8
16:05 30.3 46.3 1019.5 10.8 SE 30.4 SE 0.0 236.5
16:10 29.3 49.5 1019.5 10.0 S 22.3 S 0.0 99.9
16:15 28.5 52.2 1019.5 11.8 SSE 22.3 ESE 0.0 76.7
16:20 27.9 54.5 1019.5 9.2 SSE 25.0 ESE 0.0 69.0
16:25 27.5 55.7 1019.5 9.0 S 16.9 SSE 0.0 51.6
16:30 27.1 57.7 1019.5 10.0 SSW 19.6 SSW 0.0 63.4
16:35 27.1 58.1 1019.6 7.9 S 14.2 SSE 0.0 80.3
16:40 27.0 58.4 1019.6 7.3 S 16.9 S 0.0 62.4
16:45 27.0 59.6 1019.7 8.0 SSE 22.3 SE 0.0 56.0
16:50 26.9 60.8 1019.7 8.7 SSE 22.3 ESE 0.0 61.6
16:55 26.7 61.7 1019.7 9.4 SE 25.0 SE 0.0 55.1
17:00 26.4 62.7 1019.8 9.0 SSE 25.0 SE 0.0 97.8
17:05 26.4 63.2 1019.8 7.3 S 16.9 S 0.0 138.2
17:10 26.3 64.0 1019.8 4.7 SSE 11.5 SSE 0.0 75.3
17:15 26.2 64.6 1019.9 4.6 SSE 16.9 S 0.0 31.5
17:20 25.9 65.9 1019.9 4.9 SSE 11.5 SSE 0.0 36.2
17:25 25.8 66.5 1019.9 6.1 SSE 14.2 SSW 0.0 37.4
17:30 25.6 67.5 1019.9 6.3 SE 16.9 SSE 0.0 25.0
17:35 25.4 68.4 1020.0 6.6 SE 19.6 SSE 0.0 24.1
17:40 25.3 69.0 1020.0 7.7 SSE 16.9 ESE 0.0 24.6
17:45 25.2 69.4 1020.0 8.4 SE 19.6 S 0.0 22.5
Máxima 32.0 71.1 1021.2 11.8 SSE 30.4 SE 0.0 744.7
Mínima 17.0 31.8 1019.2
Total 0.0